sensor_id;sensor_type;location;lat;lon;timestamp;temperature;humidity
26641;DHT22;14269;47.358;0.724;2024-01-15T00:01:42;13.0;36.0
26641;DHT22;14269;47.358;0.724;2024-01-15T00:04:20;13.0;37.0
26641;DHT22;14269;47.358;0.724;2024-01-15T00:06:52;13.0;36.0
26641;DHT22;14269;47.358;0.724;2024-01-15T00:09:24;13.0;36.0
26641;DHT22;14269;47.358;0.724;2024-01-15T00:11:55;13.0;36.0
26641;DHT22;14269;47.358;0.724;2024-01-15T00:14:28;13.0;36.0
26641;DHT22;14269;47.358;0.724;2024-01-15T00:16:59;13.0;36.0
26641;DHT22;14269;47.358;0.724;2024-01-15T00:19:32;13.0;36.0
26641;DHT22;14269;47.358;0.724;2024-01-15T00:22:12;13.0;37.0
26641;DHT22;14269;47.358;0.724;2024-01-15T00:24:44;13.0;37.0
26641;DHT22;14269;47.358;0.724;2024-01-15T00:27:15;13.0;37.0
26641;DHT22;14269;47.358;0.724;2024-01-15T00:29:48;13.0;38.0
26641;DHT22;14269;47.358;0.724;2024-01-15T00:32:29;12.0;38.0
26641;DHT22;14269;47.358;0.724;2024-01-15T00:35:00;12.0;39.0
26641;DHT22;14269;47.358;0.724;2024-01-15T00:37:32;12.0;39.0
26641;DHT22;14269;47.358;0.724;2024-01-15T00:40:05;12.0;39.0
26641;DHT22;14269;47.358;0.724;2024-01-15T00:42:45;12.0;39.0
26641;DHT22;14269;47.358;0.724;2024-01-15T00:45:17;12.0;39.0
26641;DHT22;14269;47.358;0.724;2024-01-15T00:47:49;12.0;39.0
26641;DHT22;14269;47.358;0.724;2024-01-15T00:50:20;12.0;39.0
26641;DHT22;14269;47.358;0.724;2024-01-15T00:52:52;13.0;39.0
26641;DHT22;14269;47.358;0.724;2024-01-15T00:55:24;12.0;39.0
26641;DHT22;14269;47.358;0.724;2024-01-15T00:57:55;12.0;39.0
26641;DHT22;14269;47.358;0.724;2024-01-15T01:00:27;12.0;39.0
26641;DHT22;14269;47.358;0.724;2024-01-15T01:02:59;12.0;39.0
26641;DHT22;14269;47.358;0.724;2024-01-15T01:05:30;12.0;40.0
26641;DHT22;14269;47.358;0.724;2024-01-15T01:08:02;12.0;40.0
26641;DHT22;14269;47.358;0.724;2024-01-15T01:10:34;12.0;39.0
26641;DHT22;14269;47.358;0.724;2024-01-15T01:13:05;12.0;39.0
26641;DHT22;14269;47.358;0.724;2024-01-15T01:15:37;12.0;40.0
26641;DHT22;14269;47.358;0.724;2024-01-15T01:18:19;12.0;40.0
26641;DHT22;14269;47.358;0.724;2024-01-15T01:20:51;12.0;40.0
26641;DHT22;14269;47.358;0.724;2024-01-15T01:23:22;12.0;39.0
26641;DHT22;14269;47.358;0.724;2024-01-15T01:25:54;13.0;40.0
26641;DHT22;14269;47.358;0.724;2024-01-15T01:28:25;13.0;39.0
26641;DHT22;14269;47.358;0.724;2024-01-15T01:30:57;13.0;39.0
26641;DHT22;14269;47.358;0.724;2024-01-15T01:33:28;13.0;39.0
26641;DHT22;14269;47.358;0.724;2024-01-15T01:36:00;12.0;40.0
26641;DHT22;14269;47.358;0.724;2024-01-15T01:38:32;12.0;40.0
26641;DHT22;14269;47.358;0.724;2024-01-15T01:41:03;13.0;40.0
26641;DHT22;14269;47.358;0.724;2024-01-15T01:43:35;13.0;40.0
26641;DHT22;14269;47.358;0.724;2024-01-15T01:46:07;13.0;39.0
26641;DHT22;14269;47.358;0.724;2024-01-15T01:48:39;13.0;39.0
26641;DHT22;14269;47.358;0.724;2024-01-15T01:51:11;13.0;39.0
26641;DHT22;14269;47.358;0.724;2024-01-15T01:53:52;13.0;39.0
26641;DHT22;14269;47.358;0.724;2024-01-15T01:56:23;13.0;39.0
26641;DHT22;14269;47.358;0.724;2024-01-15T01:58:55;13.0;39.0
26641;DHT22;14269;47.358;0.724;2024-01-15T02:01:27;13.0;38.0
26641;DHT22;14269;47.358;0.724;2024-01-15T02:03:59;13.0;38.0
26641;DHT22;14269;47.358;0.724;2024-01-15T02:06:40;13.0;39.0
26641;DHT22;14269;47.358;0.724;2024-01-15T02:09:15;13.0;38.0
26641;DHT22;14269;47.358;0.724;2024-01-15T02:11:54;13.0;39.0
26641;DHT22;14269;47.358;0.724;2024-01-15T02:14:25;13.0;40.0
26641;DHT22;14269;47.358;0.724;2024-01-15T02:16:57;13.0;40.0
26641;DHT22;14269;47.358;0.724;2024-01-15T02:19:28;13.0;39.0
26641;DHT22;14269;47.358;0.724;2024-01-15T02:22:00;13.0;38.0
26641;DHT22;14269;47.358;0.724;2024-01-15T02:24:32;13.0;39.0
26641;DHT22;14269;47.358;0.724;2024-01-15T02:27:04;13.0;38.0
26641;DHT22;14269;47.358;0.724;2024-01-15T02:29:35;13.0;40.0
26641;DHT22;14269;47.358;0.724;2024-01-15T02:32:08;13.0;40.0
26641;DHT22;14269;47.358;0.724;2024-01-15T02:34:48;13.0;37.0
26641;DHT22;14269;47.358;0.724;2024-01-15T02:37:20;12.0;39.0
26641;DHT22;14269;47.358;0.724;2024-01-15T02:39:52;12.0;40.0
26641;DHT22;14269;47.358;0.724;2024-01-15T02:42:23;12.0;40.0
26641;DHT22;14269;47.358;0.724;2024-01-15T02:45:06;12.0;41.0
26641;DHT22;14269;47.358;0.724;2024-01-15T02:47:37;13.0;39.0
26641;DHT22;14269;47.358;0.724;2024-01-15T02:50:09;13.0;38.0
26641;DHT22;14269;47.358;0.724;2024-01-15T02:52:41;13.0;40.0
26641;DHT22;14269;47.358;0.724;2024-01-15T02:55:12;13.0;39.0
26641;DHT22;14269;47.358;0.724;2024-01-15T02:57:43;13.0;40.0
26641;DHT22;14269;47.358;0.724;2024-01-15T03:00:15;13.0;39.0
26641;DHT22;14269;47.358;0.724;2024-01-15T03:02:48;13.0;40.0
26641;DHT22;14269;47.358;0.724;2024-01-15T03:05:28;13.0;39.0
26641;DHT22;14269;47.358;0.724;2024-01-15T03:08:00;13.0;39.0
26641;DHT22;14269;47.358;0.724;2024-01-15T03:10:32;13.0;40.0
26641;DHT22;14269;47.358;0.724;2024-01-15T03:13:03;13.0;40.0
26641;DHT22;14269;47.358;0.724;2024-01-15T03:15:35;13.0;39.0
26641;DHT22;14269;47.358;0.724;2024-01-15T03:18:07;12.0;39.0
26641;DHT22;14269;47.358;0.724;2024-01-15T03:20:38;12.0;40.0
26641;DHT22;14269;47.358;0.724;2024-01-15T03:23:10;12.0;40.0
26641;DHT22;14269;47.358;0.724;2024-01-15T03:25:42;13.0;39.0
26641;DHT22;14269;47.358;0.724;2024-01-15T03:28:13;13.0;39.0
26641;DHT22;14269;47.358;0.724;2024-01-15T03:30:45;13.0;39.0
26641;DHT22;14269;47.358;0.724;2024-01-15T03:33:16;13.0;38.0
26641;DHT22;14269;47.358;0.724;2024-01-15T03:35:48;13.0;38.0
26641;DHT22;14269;47.358;0.724;2024-01-15T03:38:20;12.0;39.0
26641;DHT22;14269;47.358;0.724;2024-01-15T03:40:51;13.0;39.0
26641;DHT22;14269;47.358;0.724;2024-01-15T03:43:23;13.0;39.0
26641;DHT22;14269;47.358;0.724;2024-01-15T03:45:55;13.0;39.0
26641;DHT22;14269;47.358;0.724;2024-01-15T03:48:26;13.0;40.0
26641;DHT22;14269;47.358;0.724;2024-01-15T03:50:58;13.0;39.0
26641;DHT22;14269;47.358;0.724;2024-01-15T03:53:30;13.0;39.0
26641;DHT22;14269;47.358;0.724;2024-01-15T03:56:01;13.0;39.0
26641;DHT22;14269;47.358;0.724;2024-01-15T03:58:33;13.0;39.0
26641;DHT22;14269;47.358;0.724;2024-01-15T04:01:08;13.0;39.0
26641;DHT22;14269;47.358;0.724;2024-01-15T04:03:46;13.0;39.0
26641;DHT22;14269;47.358;0.724;2024-01-15T04:06:18;13.0;39.0
26641;DHT22;14269;47.358;0.724;2024-01-15T04:08:50;13.0;39.0
26641;DHT22;14269;47.358;0.724;2024-01-15T04:11:22;12.0;39.0
26641;DHT22;14269;47.358;0.724;2024-01-15T04:13:53;12.0;40.0
26641;DHT22;14269;47.358;0.724;2024-01-15T04:16:25;12.0;40.0
26641;DHT22;14269;47.358;0.724;2024-01-15T04:18:56;12.0;40.0
26641;DHT22;14269;47.358;0.724;2024-01-15T04:21:28;12.0;40.0
26641;DHT22;14269;47.358;0.724;2024-01-15T04:23:59;12.0;39.0
26641;DHT22;14269;47.358;0.724;2024-01-15T04:26:31;12.0;39.0
26641;DHT22;14269;47.358;0.724;2024-01-15T04:29:03;13.0;39.0
26641;DHT22;14269;47.358;0.724;2024-01-15T04:31:34;13.0;38.0
26641;DHT22;14269;47.358;0.724;2024-01-15T04:34:06;13.0;39.0
26641;DHT22;14269;47.358;0.724;2024-01-15T04:36:40;13.0;39.0
26641;DHT22;14269;47.358;0.724;2024-01-15T04:39:19;13.0;39.0
26641;DHT22;14269;47.358;0.724;2024-01-15T04:41:51;13.0;39.0
26641;DHT22;14269;47.358;0.724;2024-01-15T04:44:23;13.0;39.0
26641;DHT22;14269;47.358;0.724;2024-01-15T04:46:54;13.0;39.0
26641;DHT22;14269;47.358;0.724;2024-01-15T04:49:27;13.0;39.0
26641;DHT22;14269;47.358;0.724;2024-01-15T04:52:10;13.0;39.0
26641;DHT22;14269;47.358;0.724;2024-01-15T04:54:50;13.0;38.0
26641;DHT22;14269;47.358;0.724;2024-01-15T04:57:21;13.0;39.0
26641;DHT22;14269;47.358;0.724;2024-01-15T04:59:53;13.0;39.0
26641;DHT22;14269;47.358;0.724;2024-01-15T05:02:24;13.0;39.0
26641;DHT22;14269;47.358;0.724;2024-01-15T05:04:56;13.0;39.0
26641;DHT22;14269;47.358;0.724;2024-01-15T05:07:28;13.0;39.0
26641;DHT22;14269;47.358;0.724;2024-01-15T05:09:59;13.0;39.0
26641;DHT22;14269;47.358;0.724;2024-01-15T05:12:31;13.0;39.0
26641;DHT22;14269;47.358;0.724;2024-01-15T05:15:03;13.0;39.0
26641;DHT22;14269;47.358;0.724;2024-01-15T05:17:34;13.0;39.0
26641;DHT22;14269;47.358;0.724;2024-01-15T05:20:07;13.0;40.0
26641;DHT22;14269;47.358;0.724;2024-01-15T05:22:48;12.0;40.0
26641;DHT22;14269;47.358;0.724;2024-01-15T05:25:19;12.0;40.0
26641;DHT22;14269;47.358;0.724;2024-01-15T05:27:51;12.0;40.0
26641;DHT22;14269;47.358;0.724;2024-01-15T05:30:23;12.0;40.0
26641;DHT22;14269;47.358;0.724;2024-01-15T05:32:54;13.0;40.0
26641;DHT22;14269;47.358;0.724;2024-01-15T05:35:26;13.0;41.0
26641;DHT22;14269;47.358;0.724;2024-01-15T05:37:58;13.0;40.0
26641;DHT22;14269;47.358;0.724;2024-01-15T05:40:29;13.0;40.0
26641;DHT22;14269;47.358;0.724;2024-01-15T05:43:01;12.0;41.0
26641;DHT22;14269;47.358;0.724;2024-01-15T05:45:34;12.0;41.0
26641;DHT22;14269;47.358;0.724;2024-01-15T05:48:14;12.0;41.0
26641;DHT22;14269;47.358;0.724;2024-01-15T05:50:46;12.0;41.0
26641;DHT22;14269;47.358;0.724;2024-01-15T05:53:18;12.0;41.0
26641;DHT22;14269;47.358;0.724;2024-01-15T05:55:49;12.0;42.0
26641;DHT22;14269;47.358;0.724;2024-01-15T05:58:21;12.0;41.0
26641;DHT22;14269;47.358;0.724;2024-01-15T06:00:53;12.0;41.0
26641;DHT22;14269;47.358;0.724;2024-01-15T06:03:24;12.0;41.0
26641;DHT22;14269;47.358;0.724;2024-01-15T06:05:56;12.0;42.0
26641;DHT22;14269;47.358;0.724;2024-01-15T06:08:28;12.0;42.0
26641;DHT22;14269;47.358;0.724;2024-01-15T06:10:59;12.0;42.0
26641;DHT22;14269;47.358;0.724;2024-01-15T06:13:31;13.0;41.0
26641;DHT22;14269;47.358;0.724;2024-01-15T06:16:03;12.0;41.0
26641;DHT22;14269;47.358;0.724;2024-01-15T06:18:44;12.0;42.0
26641;DHT22;14269;47.358;0.724;2024-01-15T06:21:16;13.0;41.0
26641;DHT22;14269;47.358;0.724;2024-01-15T06:23:47;13.0;40.0
26641;DHT22;14269;47.358;0.724;2024-01-15T06:26:20;13.0;40.0
26641;DHT22;14269;47.358;0.724;2024-01-15T06:28:51;13.0;39.0
26641;DHT22;14269;47.358;0.724;2024-01-15T06:31:22;13.0;39.0
26641;DHT22;14269;47.358;0.724;2024-01-15T06:33:55;13.0;39.0
26641;DHT22;14269;47.358;0.724;2024-01-15T06:36:36;13.0;39.0
26641;DHT22;14269;47.358;0.724;2024-01-15T06:39:07;13.0;39.0
26641;DHT22;14269;47.358;0.724;2024-01-15T06:41:43;13.0;40.0
26641;DHT22;14269;47.358;0.724;2024-01-15T06:44:21;12.0;40.0
26641;DHT22;14269;47.358;0.724;2024-01-15T06:46:57;12.0;41.0
26641;DHT22;14269;47.358;0.724;2024-01-15T06:49:34;12.0;41.0
26641;DHT22;14269;47.358;0.724;2024-01-15T06:52:06;12.0;42.0
26641;DHT22;14269;47.358;0.724;2024-01-15T06:54:38;12.0;42.0
26641;DHT22;14269;47.358;0.724;2024-01-15T06:57:09;13.0;41.0
26641;DHT22;14269;47.358;0.724;2024-01-15T06:59:41;13.0;40.0
26641;DHT22;14269;47.358;0.724;2024-01-15T07:02:13;13.0;39.0
26641;DHT22;14269;47.358;0.724;2024-01-15T07:04:44;13.0;39.0
26641;DHT22;14269;47.358;0.724;2024-01-15T07:07:16;12.0;41.0
26641;DHT22;14269;47.358;0.724;2024-01-15T07:09:48;13.0;39.0
26641;DHT22;14269;47.358;0.724;2024-01-15T07:12:19;12.0;41.0
26641;DHT22;14269;47.358;0.724;2024-01-15T07:14:51;12.0;42.0
26641;DHT22;14269;47.358;0.724;2024-01-15T07:17:22;12.0;42.0
26641;DHT22;14269;47.358;0.724;2024-01-15T07:19:54;12.0;43.0
26641;DHT22;14269;47.358;0.724;2024-01-15T07:22:26;12.0;42.0
26641;DHT22;14269;47.358;0.724;2024-01-15T07:24:57;11.0;44.0
26641;DHT22;14269;47.358;0.724;2024-01-15T07:27:29;12.0;43.0
26641;DHT22;14269;47.358;0.724;2024-01-15T07:30:01;12.0;42.0
26641;DHT22;14269;47.358;0.724;2024-01-15T07:32:32;12.0;43.0
26641;DHT22;14269;47.358;0.724;2024-01-15T07:35:05;12.0;43.0
26641;DHT22;14269;47.358;0.724;2024-01-15T07:37:46;12.0;44.0
26641;DHT22;14269;47.358;0.724;2024-01-15T07:40:17;11.0;44.0
26641;DHT22;14269;47.358;0.724;2024-01-15T07:42:49;11.0;44.0
26641;DHT22;14269;47.358;0.724;2024-01-15T07:45:21;12.0;43.0
26641;DHT22;14269;47.358;0.724;2024-01-15T07:47:52;12.0;43.0
26641;DHT22;14269;47.358;0.724;2024-01-15T07:50:24;12.0;43.0
26641;DHT22;14269;47.358;0.724;2024-01-15T07:52:56;11.0;44.0
26641;DHT22;14269;47.358;0.724;2024-01-15T07:55:27;12.0;43.0
26641;DHT22;14269;47.358;0.724;2024-01-15T07:57:59;12.0;43.0
26641;DHT22;14269;47.358;0.724;2024-01-15T08:00:30;11.0;44.0
26641;DHT22;14269;47.358;0.724;2024-01-15T08:03:03;11.0;45.0
26641;DHT22;14269;47.358;0.724;2024-01-15T08:05:44;12.0;44.0
26641;DHT22;14269;47.358;0.724;2024-01-15T08:08:15;12.0;43.0
26641;DHT22;14269;47.358;0.724;2024-01-15T08:10:47;12.0;42.0
26641;DHT22;14269;47.358;0.724;2024-01-15T08:13:20;12.0;44.0
26641;DHT22;14269;47.358;0.724;2024-01-15T08:15:50;12.0;42.0
26641;DHT22;14269;47.358;0.724;2024-01-15T08:18:22;12.0;42.0
26641;DHT22;14269;47.358;0.724;2024-01-15T08:20:54;12.0;42.0
26641;DHT22;14269;47.358;0.724;2024-01-15T08:23:28;12.0;43.0
26641;DHT22;14269;47.358;0.724;2024-01-15T08:26:07;12.0;43.0
26641;DHT22;14269;47.358;0.724;2024-01-15T08:28:49;12.0;43.0
26641;DHT22;14269;47.358;0.724;2024-01-15T08:31:21;12.0;42.0
26641;DHT22;14269;47.358;0.724;2024-01-15T08:33:52;12.0;42.0
26641;DHT22;14269;47.358;0.724;2024-01-15T08:36:24;12.0;42.0
26641;DHT22;14269;47.358;0.724;2024-01-15T08:38:55;12.0;42.0
26641;DHT22;14269;47.358;0.724;2024-01-15T08:41:27;13.0;42.0
26641;DHT22;14269;47.358;0.724;2024-01-15T08:43:59;12.0;42.0
26641;DHT22;14269;47.358;0.724;2024-01-15T08:46:30;13.0;42.0
26641;DHT22;14269;47.358;0.724;2024-01-15T08:49:03;14.0;40.0
26641;DHT22;14269;47.358;0.724;2024-01-15T08:51:44;14.0;40.0
26641;DHT22;14269;47.358;0.724;2024-01-15T08:54:15;13.0;41.0
26641;DHT22;14269;47.358;0.724;2024-01-15T08:56:47;14.0;39.0
26641;DHT22;14269;47.358;0.724;2024-01-15T08:59:24;14.0;38.0
26641;DHT22;14269;47.358;0.724;2024-01-15T09:02:00;14.0;39.0
26641;DHT22;14269;47.358;0.724;2024-01-15T09:04:32;14.0;39.0
26641;DHT22;14269;47.358;0.724;2024-01-15T09:07:04;14.0;39.0
26641;DHT22;14269;47.358;0.724;2024-01-15T09:09:36;14.0;39.0
26641;DHT22;14269;47.358;0.724;2024-01-15T09:12:08;14.0;39.0
26641;DHT22;14269;47.358;0.724;2024-01-15T09:14:39;14.0;39.0
26641;DHT22;14269;47.358;0.724;2024-01-15T09:17:10;13.0;40.0
26641;DHT22;14269;47.358;0.724;2024-01-15T09:19:43;14.0;39.0
26641;DHT22;14269;47.358;0.724;2024-01-15T09:22:24;14.0;38.0
26641;DHT22;14269;47.358;0.724;2024-01-15T09:24:55;13.0;41.0
26641;DHT22;14269;47.358;0.724;2024-01-15T09:27:27;13.0;41.0
26641;DHT22;14269;47.358;0.724;2024-01-15T09:29:59;12.0;43.0
26641;DHT22;14269;47.358;0.724;2024-01-15T09:32:30;12.0;43.0
26641;DHT22;14269;47.358;0.724;2024-01-15T09:35:02;12.0;43.0
26641;DHT22;14269;47.358;0.724;2024-01-15T09:37:34;12.0;44.0
26641;DHT22;14269;47.358;0.724;2024-01-15T09:40:07;12.0;43.0
26641;DHT22;14269;47.358;0.724;2024-01-15T09:42:47;12.0;44.0
26641;DHT22;14269;47.358;0.724;2024-01-15T09:45:19;12.0;45.0
26641;DHT22;14269;47.358;0.724;2024-01-15T09:47:50;12.0;46.0
26641;DHT22;14269;47.358;0.724;2024-01-15T09:50:22;12.0;45.0
26641;DHT22;14269;47.358;0.724;2024-01-15T09:52:54;12.0;45.0
26641;DHT22;14269;47.358;0.724;2024-01-15T09:55:36;12.0;44.0
26641;DHT22;14269;47.358;0.724;2024-01-15T09:58:18;13.0;43.0
26641;DHT22;14269;47.358;0.724;2024-01-15T10:00:50;13.0;43.0
26641;DHT22;14269;47.358;0.724;2024-01-15T10:03:31;13.0;42.0
26641;DHT22;14269;47.358;0.724;2024-01-15T10:06:03;13.0;42.0
26641;DHT22;14269;47.358;0.724;2024-01-15T10:08:35;13.0;42.0
26641;DHT22;14269;47.358;0.724;2024-01-15T10:11:16;13.0;42.0
26641;DHT22;14269;47.358;0.724;2024-01-15T10:13:51;14.0;42.0
26641;DHT22;14269;47.358;0.724;2024-01-15T10:16:29;14.0;41.0
26641;DHT22;14269;47.358;0.724;2024-01-15T10:19:01;14.0;41.0
26641;DHT22;14269;47.358;0.724;2024-01-15T10:21:35;14.0;40.0
26641;DHT22;14269;47.358;0.724;2024-01-15T10:24:14;14.0;40.0
26641;DHT22;14269;47.358;0.724;2024-01-15T10:26:46;14.0;40.0
26641;DHT22;14269;47.358;0.724;2024-01-15T10:29:17;14.0;40.0
26641;DHT22;14269;47.358;0.724;2024-01-15T10:31:49;14.0;40.0
26641;DHT22;14269;47.358;0.724;2024-01-15T10:34:21;14.0;41.0
26641;DHT22;14269;47.358;0.724;2024-01-15T10:36:55;15.0;39.0
26641;DHT22;14269;47.358;0.724;2024-01-15T10:39:35;15.0;39.0
26641;DHT22;14269;47.358;0.724;2024-01-15T10:42:17;16.0;37.0
26641;DHT22;14269;47.358;0.724;2024-01-15T10:44:57;18.0;35.0
26641;DHT22;14269;47.358;0.724;2024-01-15T10:47:30;18.0;33.0
26641;DHT22;14269;47.358;0.724;2024-01-15T10:50:01;19.0;32.0
26641;DHT22;14269;47.358;0.724;2024-01-15T10:52:33;19.0;31.0
26641;DHT22;14269;47.358;0.724;2024-01-15T10:55:05;21.0;31.0
26641;DHT22;14269;47.358;0.724;2024-01-15T10:57:47;20.0;29.0
26641;DHT22;14269;47.358;0.724;2024-01-15T11:00:28;21.0;29.0
26641;DHT22;14269;47.358;0.724;2024-01-15T11:03:01;20.0;29.0
26641;DHT22;14269;47.358;0.724;2024-01-15T11:05:42;20.0;28.0
26641;DHT22;14269;47.358;0.724;2024-01-15T11:08:24;21.0;29.0
26641;DHT22;14269;47.358;0.724;2024-01-15T11:11:04;22.0;28.0
26641;DHT22;14269;47.358;0.724;2024-01-15T11:13:40;23.0;25.0
26641;DHT22;14269;47.358;0.724;2024-01-15T11:16:18;23.0;25.0
26641;DHT22;14269;47.358;0.724;2024-01-15T11:19:02;20.0;28.0
26641;DHT22;14269;47.358;0.724;2024-01-15T11:21:42;20.0;30.0
26641;DHT22;14269;47.358;0.724;2024-01-15T11:24:34;20.0;30.0
26641;DHT22;14269;47.358;0.724;2024-01-15T11:27:40;19.0;31.0
26641;DHT22;14269;47.358;0.724;2024-01-15T11:30:18;19.0;31.0
26641;DHT22;14269;47.358;0.724;2024-01-15T11:32:59;18.0;32.0
26641;DHT22;14269;47.358;0.724;2024-01-15T11:35:49;19.0;32.0
26641;DHT22;14269;47.358;0.724;2024-01-15T11:38:29;19.0;33.0
26641;DHT22;14269;47.358;0.724;2024-01-15T11:41:13;20.0;31.0
26641;DHT22;14269;47.358;0.724;2024-01-15T11:43:46;21.0;30.0
26641;DHT22;14269;47.358;0.724;2024-01-15T11:46:18;20.0;30.0
26641;DHT22;14269;47.358;0.724;2024-01-15T11:49:04;20.0;30.0
26641;DHT22;14269;47.358;0.724;2024-01-15T11:51:41;21.0;29.0
26641;DHT22;14269;47.358;0.724;2024-01-15T11:54:14;22.0;28.0
26641;DHT22;14269;47.358;0.724;2024-01-15T11:56:55;23.0;27.0
26641;DHT22;14269;47.358;0.724;2024-01-15T11:59:36;24.0;25.0
26641;DHT22;14269;47.358;0.724;2024-01-15T12:02:08;25.0;25.0
26641;DHT22;14269;47.358;0.724;2024-01-15T12:04:40;23.0;26.0
26641;DHT22;14269;47.358;0.724;2024-01-15T12:07:11;20.0;31.0
26641;DHT22;14269;47.358;0.724;2024-01-15T12:09:43;19.0;32.0
26641;DHT22;14269;47.358;0.724;2024-01-15T12:12:22;18.0;33.0
26641;DHT22;14269;47.358;0.724;2024-01-15T12:14:56;18.0;34.0
26641;DHT22;14269;47.358;0.724;2024-01-15T12:17:28;18.0;33.0
26641;DHT22;14269;47.358;0.724;2024-01-15T12:19:59;18.0;32.0
26641;DHT22;14269;47.358;0.724;2024-01-15T12:22:31;19.0;31.0
26641;DHT22;14269;47.358;0.724;2024-01-15T12:25:03;19.0;31.0
26641;DHT22;14269;47.358;0.724;2024-01-15T12:27:35;17.0;33.0
26641;DHT22;14269;47.358;0.724;2024-01-15T12:30:10;17.0;34.0
26641;DHT22;14269;47.358;0.724;2024-01-15T12:32:48;17.0;34.0
26641;DHT22;14269;47.358;0.724;2024-01-15T12:35:19;17.0;34.0
26641;DHT22;14269;47.358;0.724;2024-01-15T12:37:51;19.0;33.0
26641;DHT22;14269;47.358;0.724;2024-01-15T12:40:23;20.0;30.0
26641;DHT22;14269;47.358;0.724;2024-01-15T12:42:55;20.0;30.0
26641;DHT22;14269;47.358;0.724;2024-01-15T12:45:26;19.0;30.0
26641;DHT22;14269;47.358;0.724;2024-01-15T12:47:58;20.0;29.0
26641;DHT22;14269;47.358;0.724;2024-01-15T12:50:39;22.0;26.0
26641;DHT22;14269;47.358;0.724;2024-01-15T12:53:21;23.0;25.0
26641;DHT22;14269;47.358;0.724;2024-01-15T12:55:53;22.0;26.0
26641;DHT22;14269;47.358;0.724;2024-01-15T12:58:24;21.0;26.0
26641;DHT22;14269;47.358;0.724;2024-01-15T13:00:56;20.0;27.0
26641;DHT22;14269;47.358;0.724;2024-01-15T13:03:28;21.0;28.0
26641;DHT22;14269;47.358;0.724;2024-01-15T13:05:59;21.0;27.0
26641;DHT22;14269;47.358;0.724;2024-01-15T13:08:31;22.0;25.0
26641;DHT22;14269;47.358;0.724;2024-01-15T13:11:03;22.0;25.0
26641;DHT22;14269;47.358;0.724;2024-01-15T13:13:34;22.0;25.0
26641;DHT22;14269;47.358;0.724;2024-01-15T13:16:06;22.0;24.0
26641;DHT22;14269;47.358;0.724;2024-01-15T13:18:37;22.0;25.0
26641;DHT22;14269;47.358;0.724;2024-01-15T13:21:09;21.0;25.0
26641;DHT22;14269;47.358;0.724;2024-01-15T13:23:41;20.0;26.0
26641;DHT22;14269;47.358;0.724;2024-01-15T13:26:13;20.0;27.0
26641;DHT22;14269;47.358;0.724;2024-01-15T13:28:44;20.0;26.0
26641;DHT22;14269;47.358;0.724;2024-01-15T13:31:16;22.0;23.0
26641;DHT22;14269;47.358;0.724;2024-01-15T13:33:47;22.0;25.0
26641;DHT22;14269;47.358;0.724;2024-01-15T13:36:21;24.0;21.0
26641;DHT22;14269;47.358;0.724;2024-01-15T13:39:01;25.0;20.0
26641;DHT22;14269;47.358;0.724;2024-01-15T13:41:32;26.0;19.0
26641;DHT22;14269;47.358;0.724;2024-01-15T13:44:04;25.0;20.0
26641;DHT22;14269;47.358;0.724;2024-01-15T13:46:36;24.0;21.0
26641;DHT22;14269;47.358;0.724;2024-01-15T13:49:09;24.0;22.0
26641;DHT22;14269;47.358;0.724;2024-01-15T13:51:50;23.0;21.0
26641;DHT22;14269;47.358;0.724;2024-01-15T13:54:21;22.0;22.0
26641;DHT22;14269;47.358;0.724;2024-01-15T13:56:52;22.0;23.0
26641;DHT22;14269;47.358;0.724;2024-01-15T13:59:24;23.0;22.0
26641;DHT22;14269;47.358;0.724;2024-01-15T14:01:56;22.0;23.0
26641;DHT22;14269;47.358;0.724;2024-01-15T14:04:38;22.0;23.0
26641;DHT22;14269;47.358;0.724;2024-01-15T14:07:09;20.0;25.0
26641;DHT22;14269;47.358;0.724;2024-01-15T14:09:41;19.0;26.0
26641;DHT22;14269;47.358;0.724;2024-01-15T14:12:12;18.0;27.0
26641;DHT22;14269;47.358;0.724;2024-01-15T14:14:44;20.0;25.0
26641;DHT22;14269;47.358;0.724;2024-01-15T14:17:16;22.0;22.0
26641;DHT22;14269;47.358;0.724;2024-01-15T14:19:47;22.0;22.0
26641;DHT22;14269;47.358;0.724;2024-01-15T14:22:19;22.0;22.0
26641;DHT22;14269;47.358;0.724;2024-01-15T14:24:51;22.0;22.0
26641;DHT22;14269;47.358;0.724;2024-01-15T14:27:22;21.0;24.0
26641;DHT22;14269;47.358;0.724;2024-01-15T14:29:54;19.0;24.0
26641;DHT22;14269;47.358;0.724;2024-01-15T14:32:26;20.0;24.0
26641;DHT22;14269;47.358;0.724;2024-01-15T14:34:57;20.0;23.0
26641;DHT22;14269;47.358;0.724;2024-01-15T14:37:29;21.0;23.0
26641;DHT22;14269;47.358;0.724;2024-01-15T14:40:00;22.0;22.0
26641;DHT22;14269;47.358;0.724;2024-01-15T14:42:32;23.0;20.0
26641;DHT22;14269;47.358;0.724;2024-01-15T14:45:11;24.0;19.0
26641;DHT22;14269;47.358;0.724;2024-01-15T14:47:46;24.0;19.0
26641;DHT22;14269;47.358;0.724;2024-01-15T14:50:17;24.0;20.0
26641;DHT22;14269;47.358;0.724;2024-01-15T14:52:49;24.0;19.0
26641;DHT22;14269;47.358;0.724;2024-01-15T14:55:23;23.0;20.0
26641;DHT22;14269;47.358;0.724;2024-01-15T14:58:02;22.0;20.0
26641;DHT22;14269;47.358;0.724;2024-01-15T15:00:34;20.0;22.0
26641;DHT22;14269;47.358;0.724;2024-01-15T15:03:06;19.0;24.0
26641;DHT22;14269;47.358;0.724;2024-01-15T15:05:37;17.0;26.0
26641;DHT22;14269;47.358;0.724;2024-01-15T15:08:09;17.0;27.0
26641;DHT22;14269;47.358;0.724;2024-01-15T15:10:40;16.0;27.0
26641;DHT22;14269;47.358;0.724;2024-01-15T15:13:12;16.0;27.0
26641;DHT22;14269;47.358;0.724;2024-01-15T15:15:44;16.0;27.0
26641;DHT22;14269;47.358;0.724;2024-01-15T15:18:15;16.0;28.0
26641;DHT22;14269;47.358;0.724;2024-01-15T15:20:47;16.0;27.0
26641;DHT22;14269;47.358;0.724;2024-01-15T15:23:19;16.0;28.0
26641;DHT22;14269;47.358;0.724;2024-01-15T15:25:50;15.0;28.0
26641;DHT22;14269;47.358;0.724;2024-01-15T15:28:22;15.0;28.0
26641;DHT22;14269;47.358;0.724;2024-01-15T15:30:54;15.0;28.0
26641;DHT22;14269;47.358;0.724;2024-01-15T15:33:25;15.0;29.0
26641;DHT22;14269;47.358;0.724;2024-01-15T15:35:59;15.0;29.0
26641;DHT22;14269;47.358;0.724;2024-01-15T15:38:39;15.0;29.0
26641;DHT22;14269;47.358;0.724;2024-01-15T15:41:11;15.0;28.0
26641;DHT22;14269;47.358;0.724;2024-01-15T15:43:42;15.0;27.0
26641;DHT22;14269;47.358;0.724;2024-01-15T15:46:14;15.0;27.0
26641;DHT22;14269;47.358;0.724;2024-01-15T15:48:45;15.0;26.0
26641;DHT22;14269;47.358;0.724;2024-01-15T15:51:17;15.0;26.0
26641;DHT22;14269;47.358;0.724;2024-01-15T15:53:49;15.0;27.0
26641;DHT22;14269;47.358;0.724;2024-01-15T15:56:20;15.0;26.0
26641;DHT22;14269;47.358;0.724;2024-01-15T15:58:52;15.0;26.0
26641;DHT22;14269;47.358;0.724;2024-01-15T16:01:23;15.0;27.0
26641;DHT22;14269;47.358;0.724;2024-01-15T16:03:55;15.0;27.0
26641;DHT22;14269;47.358;0.724;2024-01-15T16:06:27;15.0;27.0
26641;DHT22;14269;47.358;0.724;2024-01-15T16:08:58;15.0;27.0
26641;DHT22;14269;47.358;0.724;2024-01-15T16:11:31;14.0;28.0
26641;DHT22;14269;47.358;0.724;2024-01-15T16:14:02;14.0;28.0
26641;DHT22;14269;47.358;0.724;2024-01-15T16:16:34;14.0;28.0
26641;DHT22;14269;47.358;0.724;2024-01-15T16:19:05;14.0;28.0
26641;DHT22;14269;47.358;0.724;2024-01-15T16:21:37;14.0;28.0
26641;DHT22;14269;47.358;0.724;2024-01-15T16:24:08;14.0;29.0
26641;DHT22;14269;47.358;0.724;2024-01-15T16:26:40;14.0;29.0
26641;DHT22;14269;47.358;0.724;2024-01-15T16:29:12;14.0;29.0
26641;DHT22;14269;47.358;0.724;2024-01-15T16:31:43;14.0;29.0
26641;DHT22;14269;47.358;0.724;2024-01-15T16:34:15;14.0;30.0
26641;DHT22;14269;47.358;0.724;2024-01-15T16:36:46;14.0;30.0
26641;DHT22;14269;47.358;0.724;2024-01-15T16:39:18;14.0;30.0
26641;DHT22;14269;47.358;0.724;2024-01-15T16:41:50;13.0;30.0